createdAt,value
2023-03-15T00:01:40.836Z,100.00
2023-03-15T00:04:07.434Z,100.00
2023-03-15T00:06:34.930Z,100.00
2023-03-15T00:09:02.119Z,100.00
2023-03-15T00:11:32.908Z,100.00
2023-03-15T00:13:59.804Z,100.00
2023-03-15T00:16:27.057Z,100.00
2023-03-15T00:18:54.680Z,100.00
2023-03-15T00:21:21.841Z,100.00
2023-03-15T00:23:48.643Z,100.00
2023-03-15T00:26:15.694Z,100.00
2023-03-15T00:28:42.336Z,100.00
2023-03-15T00:31:15.164Z,100.00
2023-03-15T00:33:41.983Z,100.00
2023-03-15T00:36:09.619Z,100.00
2023-03-15T00:38:37.114Z,100.00
2023-03-15T00:41:06.737Z,100.00
2023-03-15T00:43:33.636Z,100.00
2023-03-15T00:46:00.640Z,100.00
2023-03-15T00:48:27.247Z,100.00
2023-03-15T00:51:07.569Z,100.00
2023-03-15T00:53:35.347Z,100.00
2023-03-15T00:56:10.332Z,100.00
2023-03-15T00:58:37.484Z,100.00
2023-03-15T01:01:25.482Z,100.00
2023-03-15T01:03:52.637Z,100.00
2023-03-15T01:06:27.544Z,100.00
2023-03-15T01:08:56.659Z,100.00
2023-03-15T01:11:26.298Z,100.00
2023-03-15T01:13:54.678Z,100.00
2023-03-15T01:16:22.119Z,100.00
2023-03-15T01:18:48.993Z,100.00
2023-03-15T01:21:16.074Z,100.00
2023-03-15T01:23:42.639Z,100.00
2023-03-15T01:26:12.582Z,100.00
2023-03-15T01:28:39.492Z,100.00
2023-03-15T01:31:06.162Z,100.00
2023-03-15T01:33:32.735Z,100.00
2023-03-15T01:36:04.776Z,100.00
2023-03-15T01:38:31.673Z,100.00
2023-03-15T01:40:58.257Z,100.00
2023-03-15T01:43:27.498Z,100.00
2023-03-15T01:46:00.098Z,100.00
2023-03-15T01:48:31.037Z,100.00
2023-03-15T01:50:58.336Z,100.00
2023-03-15T01:53:26.422Z,100.00
2023-03-15T01:55:53.687Z,100.00
2023-03-15T01:58:21.676Z,100.00
2023-03-15T02:00:48.298Z,100.00
2023-03-15T02:03:31.068Z,100.00
2023-03-15T02:06:01.261Z,100.00
2023-03-15T02:08:35.079Z,100.00
2023-03-15T02:11:03.111Z,100.00
2023-03-15T02:13:30.870Z,100.00
2023-03-15T02:15:57.594Z,100.00
2023-03-15T02:18:24.227Z,100.00
2023-03-15T02:21:00.339Z,100.00
2023-03-15T02:23:27.271Z,100.00
2023-03-15T02:26:03.506Z,100.00
2023-03-15T02:28:30.469Z,100.00
2023-03-15T02:30:57.174Z,100.00
2023-03-15T02:33:35.418Z,100.00
2023-03-15T02:36:21.787Z,100.00
2023-03-15T02:38:49.383Z,100.00
2023-03-15T02:41:19.213Z,100.00
2023-03-15T02:43:47.283Z,100.00
2023-03-15T02:46:14.724Z,100.00
2023-03-15T02:48:42.183Z,100.00
2023-03-15T02:51:17.174Z,100.00
2023-03-15T02:53:43.630Z,100.00
2023-03-15T02:56:10.071Z,100.00
2023-03-15T02:58:36.629Z,100.00
2023-03-15T03:01:03.109Z,100.00
2023-03-15T03:03:29.602Z,100.00
2023-03-15T03:05:56.069Z,100.00
2023-03-15T03:08:22.670Z,100.00
2023-03-15T03:10:49.818Z,100.00
2023-03-15T03:13:17.066Z,100.00
2023-03-15T03:15:45.542Z,100.00
2023-03-15T03:18:12.484Z,100.00
2023-03-15T03:20:38.941Z,100.00
2023-03-15T03:23:06.136Z,100.00
2023-03-15T03:25:33.396Z,100.00
2023-03-15T03:27:59.836Z,100.00
2023-03-15T03:30:26.256Z,100.00
2023-03-15T03:32:53.105Z,100.00
2023-03-15T03:35:19.604Z,100.00
2023-03-15T03:37:46.096Z,100.00
2023-03-15T03:40:13.139Z,100.00
2023-03-15T03:42:39.623Z,100.00
2023-03-15T03:45:07.367Z,100.00
2023-03-15T03:47:34.200Z,100.00
2023-03-15T03:50:00.766Z,100.00
2023-03-15T03:52:27.333Z,100.00
2023-03-15T03:54:53.900Z,100.00
2023-03-15T03:57:20.451Z,100.00
2023-03-15T03:59:46.912Z,100.00
2023-03-15T04:02:13.473Z,100.00
2023-03-15T04:04:41.504Z,100.00
2023-03-15T04:07:08.406Z,100.00
2023-03-15T04:09:37.438Z,100.00
2023-03-15T04:12:05.451Z,100.00
2023-03-15T04:14:31.974Z,100.00
2023-03-15T04:16:58.608Z,100.00
2023-03-15T04:19:25.220Z,100.00
2023-03-15T04:21:52.430Z,100.00
2023-03-15T04:24:18.939Z,100.00
2023-03-15T04:26:45.469Z,100.00
2023-03-15T04:29:12.421Z,100.00
2023-03-15T04:31:39.009Z,100.00
2023-03-15T04:34:05.774Z,100.00
2023-03-15T04:36:32.305Z,100.00
2023-03-15T04:39:05.955Z,100.00
2023-03-15T04:41:34.782Z,100.00
2023-03-15T04:44:03.620Z,100.00
2023-03-15T04:46:31.920Z,100.00
2023-03-15T04:48:58.824Z,100.00
2023-03-15T04:51:25.656Z,100.00
2023-03-15T04:53:52.282Z,100.00
2023-03-15T04:56:18.811Z,100.00
2023-03-15T04:58:45.270Z,100.00
2023-03-15T05:01:11.910Z,100.00
2023-03-15T05:03:44.590Z,100.00
2023-03-15T05:06:11.205Z,100.00
2023-03-15T05:08:38.794Z,100.00
2023-03-15T05:11:05.933Z,100.00
2023-03-15T05:13:32.627Z,100.00
2023-03-15T05:16:02.349Z,100.00
2023-03-15T05:18:29.369Z,100.00
2023-03-15T05:20:56.651Z,100.00
2023-03-15T05:23:24.581Z,100.00
2023-03-15T05:25:55.415Z,100.00
2023-03-15T05:28:23.620Z,100.00
2023-03-15T05:30:52.094Z,100.00
2023-03-15T05:33:19.063Z,100.00
2023-03-15T05:35:45.720Z,100.00
2023-03-15T05:38:16.180Z,100.00
2023-03-15T05:40:46.557Z,100.00
2023-03-15T05:43:13.012Z,100.00
2023-03-15T05:45:39.531Z,100.00
2023-03-15T05:48:06.592Z,100.00
2023-03-15T05:50:33.550Z,100.00
2023-03-15T05:53:00.064Z,100.00
2023-03-15T05:55:26.555Z,100.00
2023-03-15T05:57:53.562Z,100.00
2023-03-15T06:00:20.584Z,100.00
2023-03-15T06:02:47.155Z,100.00
2023-03-15T06:05:13.746Z,100.00
2023-03-15T06:07:40.411Z,100.00
2023-03-15T06:10:07.335Z,100.00
2023-03-15T06:12:33.775Z,100.00
2023-03-15T06:15:00.372Z,100.00
2023-03-15T06:17:26.865Z,100.00
2023-03-15T06:19:53.296Z,100.00
2023-03-15T06:22:20.679Z,100.00
2023-03-15T06:24:47.518Z,100.00
2023-03-15T06:27:14.333Z,100.00
2023-03-15T06:29:40.888Z,100.00
2023-03-15T06:32:07.658Z,100.00
2023-03-15T06:34:34.147Z,100.00
2023-03-15T06:37:01.037Z,100.00
2023-03-15T06:39:27.529Z,100.00
2023-03-15T06:41:54.021Z,100.00
2023-03-15T06:44:20.504Z,100.00
2023-03-15T06:46:46.947Z,100.00
2023-03-15T06:49:13.390Z,100.00
2023-03-15T06:51:39.930Z,100.00
2023-03-15T06:54:06.802Z,100.00
2023-03-15T06:56:37.177Z,100.00
2023-03-15T06:59:04.207Z,100.00
2023-03-15T07:01:30.796Z,100.00
2023-03-15T07:03:57.874Z,100.00
2023-03-15T07:06:24.383Z,100.00
2023-03-15T07:08:50.835Z,100.00
2023-03-15T07:11:17.311Z,100.00
2023-03-15T07:13:43.887Z,100.00
2023-03-15T07:16:10.394Z,100.00
2023-03-15T07:18:37.061Z,100.00
2023-03-15T07:21:05.082Z,100.00
2023-03-15T07:23:31.642Z,100.00
2023-03-15T07:25:58.195Z,100.00
2023-03-15T07:28:25.801Z,100.00
2023-03-15T07:30:56.971Z,100.00
2023-03-15T07:33:24.465Z,100.00
2023-03-15T07:35:51.747Z,100.00
2023-03-15T07:38:18.302Z,100.00
2023-03-15T07:40:44.847Z,100.00
2023-03-15T07:43:11.837Z,100.00
2023-03-15T07:45:38.431Z,100.00
2023-03-15T07:48:07.113Z,100.00
2023-03-15T07:50:33.778Z,100.00
2023-03-15T07:53:00.393Z,100.00
2023-03-15T07:55:26.819Z,100.00
2023-03-15T07:57:53.416Z,100.00
2023-03-15T08:00:20.447Z,100.00
2023-03-15T08:02:46.969Z,100.00
2023-03-15T08:05:14.149Z,100.00
2023-03-15T08:07:40.713Z,100.00
2023-03-15T08:10:08.015Z,100.00
2023-03-15T08:12:35.221Z,100.00
2023-03-15T08:15:01.635Z,100.00
2023-03-15T08:17:28.219Z,100.00
2023-03-15T08:19:54.629Z,100.00
2023-03-15T08:22:21.065Z,100.00
2023-03-15T08:24:47.541Z,100.00
2023-03-15T08:27:14.108Z,100.00
2023-03-15T08:29:41.127Z,100.00
2023-03-15T08:32:08.163Z,100.00
2023-03-15T08:34:35.275Z,100.00
2023-03-15T08:37:01.758Z,100.00
2023-03-15T08:39:28.207Z,100.00
2023-03-15T08:41:54.683Z,100.00
2023-03-15T08:44:21.174Z,100.00
2023-03-15T08:46:47.756Z,100.00
2023-03-15T08:49:14.296Z,100.00
2023-03-15T08:51:41.013Z,100.00
2023-03-15T08:54:07.529Z,100.00
2023-03-15T08:56:34.047Z,100.00
2023-03-15T08:59:00.603Z,100.00
2023-03-15T09:01:30.205Z,100.00
2023-03-15T09:03:57.063Z,100.00
2023-03-15T09:06:23.602Z,100.00
2023-03-15T09:08:50.149Z,100.00
2023-03-15T09:11:16.672Z,100.00
2023-03-15T09:13:43.081Z,100.00
2023-03-15T09:16:09.645Z,100.00
2023-03-15T09:18:36.142Z,100.00
2023-03-15T09:21:02.637Z,100.00
2023-03-15T09:23:29.121Z,100.00
2023-03-15T09:25:58.319Z,100.00
2023-03-15T09:28:28.047Z,100.00
2023-03-15T09:30:54.644Z,100.00
2023-03-15T09:33:22.539Z,100.00
2023-03-15T09:35:52.549Z,100.00
2023-03-15T09:38:20.040Z,100.00
2023-03-15T09:40:47.239Z,100.00
2023-03-15T09:43:25.905Z,100.00
2023-03-15T09:46:25.805Z,100.00
2023-03-15T09:49:03.862Z,100.00
2023-03-15T09:51:39.868Z,100.00
2023-03-15T09:54:21.513Z,100.00
2023-03-15T09:56:58.302Z,100.00
2023-03-15T09:59:28.982Z,100.00
2023-03-15T10:01:56.711Z,100.00
2023-03-15T10:04:28.282Z,100.00
2023-03-15T10:06:57.443Z,100.00
2023-03-15T10:09:26.705Z,100.00
2023-03-15T10:12:03.405Z,100.00
2023-03-15T10:14:54.275Z,100.00
2023-03-15T10:17:26.521Z,100.00
2023-03-15T10:19:58.509Z,100.00
2023-03-15T10:22:37.677Z,100.00
2023-03-15T10:25:07.050Z,100.00
2023-03-15T10:27:43.619Z,100.00
2023-03-15T10:30:20.315Z,100.00
2023-03-15T10:32:53.157Z,100.00
2023-03-15T10:35:20.131Z,100.00
2023-03-15T10:37:46.663Z,100.00
2023-03-15T10:40:16.811Z,100.00
2023-03-15T10:42:45.403Z,100.00
2023-03-15T10:45:23.489Z,100.00
2023-03-15T10:47:59.568Z,100.00
2023-03-15T10:50:29.656Z,100.00
2023-03-15T10:52:57.678Z,100.00
2023-03-15T10:55:32.765Z,100.00
2023-03-15T10:58:01.373Z,100.00
2023-03-15T11:00:33.598Z,100.00
2023-03-15T11:03:09.081Z,100.00
2023-03-15T11:05:45.003Z,100.00
2023-03-15T11:08:23.388Z,100.00
2023-03-15T11:10:58.613Z,100.00
2023-03-15T11:13:35.882Z,100.00
2023-03-15T11:16:13.549Z,100.00
2023-03-15T11:18:44.794Z,100.00
2023-03-15T11:21:16.521Z,100.00
2023-03-15T11:23:45.231Z,100.00
2023-03-15T11:26:32.338Z,100.00
2023-03-15T11:29:03.467Z,100.00
2023-03-15T11:31:31.241Z,100.00
2023-03-15T11:34:16.091Z,100.00
2023-03-15T11:36:45.358Z,100.00
2023-03-15T11:39:15.309Z,100.00
2023-03-15T11:41:48.689Z,100.00
2023-03-15T11:44:29.275Z,100.00
2023-03-15T11:47:06.224Z,100.00
2023-03-15T11:49:49.994Z,100.00
2023-03-15T11:52:17.562Z,100.00
2023-03-15T11:54:45.825Z,100.00
2023-03-15T11:57:36.926Z,100.00
2023-03-15T12:00:26.845Z,100.00
2023-03-15T12:02:58.998Z,100.00
2023-03-15T12:06:00.235Z,100.00
2023-03-15T12:08:34.583Z,100.00
2023-03-15T12:11:01.327Z,100.00
2023-03-15T12:13:31.765Z,100.00
2023-03-15T12:15:58.577Z,100.00
2023-03-15T12:18:28.281Z,100.00
2023-03-15T12:21:08.072Z,100.00
2023-03-15T12:23:39.428Z,100.00
2023-03-15T12:26:10.485Z,100.00
2023-03-15T12:28:39.501Z,100.00
2023-03-15T12:31:13.096Z,100.00
2023-03-15T12:33:52.861Z,100.00
2023-03-15T12:36:40.172Z,100.00
2023-03-15T12:39:09.758Z,100.00
2023-03-15T12:41:44.406Z,100.00
2023-03-15T12:44:38.457Z,100.00
2023-03-15T12:47:10.384Z,100.00
2023-03-15T12:49:39.755Z,100.00
2023-03-15T12:52:25.614Z,100.00
2023-03-15T12:55:04.137Z,100.00
2023-03-15T12:57:37.042Z,100.00
2023-03-15T13:00:07.732Z,98.79
2023-03-15T13:02:44.528Z,93.98
2023-03-15T13:05:19.055Z,88.35
2023-03-15T13:08:09.095Z,86.67
2023-03-15T13:10:39.868Z,84.43
2023-03-15T13:13:30.968Z,89.32
2023-03-15T13:16:19.804Z,82.05
2023-03-15T13:19:06.551Z,80.58
2023-03-15T13:21:40.025Z,80.19
2023-03-15T13:24:12.543Z,80.91
2023-03-15T13:26:57.896Z,79.62
2023-03-15T13:29:29.887Z,80.26
2023-03-15T13:32:03.061Z,77.73
2023-03-15T13:34:32.091Z,78.60
2023-03-15T13:37:02.092Z,77.66
2023-03-15T13:39:31.780Z,76.46
2023-03-15T13:42:00.057Z,74.81
2023-03-15T13:44:27.970Z,74.25
2023-03-15T13:46:54.764Z,75.22
2023-03-15T13:49:22.204Z,76.88
2023-03-15T13:51:54.865Z,76.55
2023-03-15T13:54:27.718Z,73.78
2023-03-15T13:57:01.688Z,72.92
2023-03-15T13:59:34.976Z,75.03
2023-03-15T14:02:02.724Z,73.27
2023-03-15T14:04:31.544Z,72.44
2023-03-15T14:07:15.530Z,70.89
2023-03-15T14:09:42.140Z,71.18
2023-03-15T14:12:19.028Z,72.13
2023-03-15T14:14:51.740Z,72.97
2023-03-15T14:17:29.952Z,72.46
2023-03-15T14:20:08.921Z,73.74
2023-03-15T14:22:36.588Z,75.17
2023-03-15T14:25:04.570Z,74.77
2023-03-15T14:27:31.996Z,76.76
2023-03-15T14:30:01.123Z,76.65
2023-03-15T14:32:34.359Z,76.59
2023-03-15T14:35:03.862Z,78.28
2023-03-15T14:37:42.056Z,76.55
2023-03-15T14:40:15.719Z,74.25
2023-03-15T14:42:43.540Z,74.68
2023-03-15T14:45:10.376Z,73.45
2023-03-15T14:47:53.289Z,73.29
2023-03-15T14:50:22.721Z,72.00
2023-03-15T14:52:50.282Z,80.19
2023-03-15T14:55:19.928Z,84.18
2023-03-15T14:57:46.653Z,87.68
2023-03-15T15:00:16.860Z,88.77
2023-03-15T15:02:44.804Z,90.09
2023-03-15T15:05:29.664Z,91.66
2023-03-15T15:08:10.029Z,92.90
2023-03-15T15:10:36.922Z,91.28
2023-03-15T15:13:06.666Z,91.64
2023-03-15T15:15:44.022Z,90.64
2023-03-15T15:18:14.550Z,90.20
2023-03-15T15:20:41.990Z,89.90
2023-03-15T15:23:28.853Z,90.17
2023-03-15T15:26:01.618Z,89.09
2023-03-15T15:28:37.564Z,85.79
2023-03-15T15:31:06.955Z,82.67
2023-03-15T15:33:34.077Z,80.99
2023-03-15T15:36:01.124Z,81.22
2023-03-15T15:38:33.139Z,82.67
2023-03-15T15:40:59.897Z,82.28
2023-03-15T15:43:26.412Z,81.61
2023-03-15T15:45:52.938Z,83.58
2023-03-15T15:48:19.412Z,85.36
2023-03-15T15:50:45.929Z,86.32
2023-03-15T15:53:16.581Z,85.02
2023-03-15T15:55:44.290Z,84.64
2023-03-15T15:58:12.167Z,82.73
2023-03-15T16:00:38.943Z,83.10
2023-03-15T16:03:15.022Z,84.64
2023-03-15T16:05:42.240Z,87.08
2023-03-15T16:08:15.811Z,88.28
2023-03-15T16:10:42.344Z,88.44
2023-03-15T16:13:10.707Z,89.08
2023-03-15T16:15:37.300Z,88.39
2023-03-15T16:18:09.406Z,88.71
2023-03-15T16:20:36.308Z,88.01
2023-03-15T16:23:02.987Z,87.70
2023-03-15T16:25:33.800Z,87.68
2023-03-15T16:28:02.224Z,88.12
2023-03-15T16:30:30.558Z,88.41
2023-03-15T16:32:57.879Z,88.97
2023-03-15T16:35:30.452Z,88.63
2023-03-15T16:37:59.501Z,87.55
2023-03-15T16:40:31.986Z,86.76
2023-03-15T16:42:59.048Z,82.98
2023-03-15T16:45:26.404Z,82.44
2023-03-15T16:47:53.301Z,80.47
2023-03-15T16:50:20.623Z,80.39
2023-03-15T16:52:49.161Z,80.31
2023-03-15T16:55:20.229Z,81.82
2023-03-15T16:57:46.685Z,83.59
2023-03-15T17:00:17.004Z,85.40
2023-03-15T17:02:48.026Z,87.48
2023-03-15T17:05:19.108Z,89.69
2023-03-15T17:07:50.369Z,91.30
2023-03-15T17:10:25.661Z,93.79
2023-03-15T17:12:53.468Z,95.52
2023-03-15T17:15:22.423Z,97.26
2023-03-15T17:17:49.154Z,98.97
2023-03-15T17:20:21.765Z,100.00
2023-03-15T17:22:52.965Z,100.00
2023-03-15T17:25:19.989Z,100.00
2023-03-15T17:27:48.266Z,100.00
2023-03-15T17:30:19.423Z,100.00
2023-03-15T17:32:46.487Z,100.00
2023-03-15T17:35:13.934Z,100.00
2023-03-15T17:37:44.583Z,100.00
2023-03-15T17:40:25.167Z,100.00
2023-03-15T17:42:52.650Z,100.00
2023-03-15T17:45:21.802Z,100.00
2023-03-15T17:47:50.220Z,100.00
2023-03-15T17:50:18.016Z,100.00
2023-03-15T17:52:45.290Z,100.00
2023-03-15T17:55:21.576Z,100.00
2023-03-15T17:57:54.652Z,100.00
2023-03-15T18:00:22.738Z,100.00
2023-03-15T18:02:55.532Z,100.00
2023-03-15T18:05:25.313Z,100.00
2023-03-15T18:07:58.582Z,100.00
2023-03-15T18:10:28.658Z,100.00
2023-03-15T18:12:55.212Z,100.00
2023-03-15T18:15:23.328Z,100.00
2023-03-15T18:17:51.140Z,100.00
2023-03-15T18:20:18.678Z,100.00
2023-03-15T18:22:45.235Z,100.00
2023-03-15T18:25:21.888Z,100.00
2023-03-15T18:27:49.251Z,100.00
2023-03-15T18:30:21.262Z,100.00
2023-03-15T18:32:48.294Z,100.00
2023-03-15T18:35:18.024Z,100.00
2023-03-15T18:37:44.953Z,100.00
2023-03-15T18:40:13.667Z,100.00
2023-03-15T18:42:40.988Z,100.00
2023-03-15T18:45:10.853Z,100.00
2023-03-15T18:47:37.294Z,100.00
2023-03-15T18:50:10.614Z,100.00
2023-03-15T18:52:37.656Z,100.00
2023-03-15T18:55:07.724Z,100.00
2023-03-15T18:57:35.575Z,100.00
2023-03-15T19:00:02.246Z,100.00
2023-03-15T19:02:28.752Z,100.00
2023-03-15T19:04:58.334Z,100.00
2023-03-15T19:07:25.691Z,100.00
2023-03-15T19:09:52.427Z,100.00
2023-03-15T19:12:18.862Z,100.00
2023-03-15T19:14:45.310Z,100.00
2023-03-15T19:17:11.888Z,100.00
2023-03-15T19:19:42.186Z,100.00
2023-03-15T19:22:09.153Z,100.00
2023-03-15T19:24:36.325Z,100.00
2023-03-15T19:27:03.038Z,100.00
2023-03-15T19:29:29.685Z,100.00
2023-03-15T19:31:56.323Z,100.00
2023-03-15T19:34:24.704Z,100.00
2023-03-15T19:36:51.683Z,100.00
2023-03-15T19:39:18.587Z,100.00
2023-03-15T19:41:45.375Z,100.00
2023-03-15T19:44:11.824Z,100.00
2023-03-15T19:46:38.807Z,100.00
2023-03-15T19:49:05.873Z,100.00
2023-03-15T19:51:32.329Z,100.00
2023-03-15T19:53:58.954Z,100.00
2023-03-15T19:56:25.538Z,100.00
2023-03-15T19:58:52.072Z,100.00
2023-03-15T20:01:18.735Z,100.00
2023-03-15T20:03:46.966Z,100.00
2023-03-15T20:06:14.100Z,100.00
2023-03-15T20:08:41.760Z,100.00
2023-03-15T20:11:08.988Z,100.00
2023-03-15T20:13:36.589Z,100.00
2023-03-15T20:16:06.662Z,100.00
2023-03-15T20:18:33.169Z,100.00
2023-03-15T20:20:59.632Z,100.00
2023-03-15T20:23:26.263Z,100.00
2023-03-15T20:26:03.568Z,100.00
2023-03-15T20:28:30.019Z,100.00
2023-03-15T20:30:56.599Z,100.00
2023-03-15T20:33:23.060Z,100.00
2023-03-15T20:35:49.548Z,100.00
2023-03-15T20:38:16.200Z,100.00
2023-03-15T20:40:44.147Z,100.00
2023-03-15T20:43:11.397Z,100.00
2023-03-15T20:45:38.861Z,100.00
2023-03-15T20:48:05.971Z,100.00
2023-03-15T20:50:32.466Z,100.00
2023-03-15T20:52:59.098Z,100.00
2023-03-15T20:55:26.144Z,100.00
2023-03-15T20:57:53.498Z,100.00
2023-03-15T21:00:20.865Z,100.00
2023-03-15T21:02:48.066Z,100.00
2023-03-15T21:05:16.178Z,100.00
2023-03-15T21:07:43.970Z,100.00
2023-03-15T21:10:12.461Z,100.00
2023-03-15T21:12:39.109Z,100.00
2023-03-15T21:15:06.276Z,100.00
2023-03-15T21:17:32.834Z,100.00
2023-03-15T21:19:59.418Z,100.00
2023-03-15T21:22:25.876Z,100.00
2023-03-15T21:24:55.889Z,100.00
2023-03-15T21:27:26.249Z,100.00
2023-03-15T21:29:53.189Z,100.00
2023-03-15T21:32:19.737Z,100.00
2023-03-15T21:34:46.193Z,100.00
2023-03-15T21:37:12.715Z,100.00
2023-03-15T21:39:39.171Z,100.00
2023-03-15T21:42:05.800Z,100.00
2023-03-15T21:44:36.275Z,100.00
2023-03-15T21:47:04.571Z,100.00
2023-03-15T21:49:37.252Z,100.00
2023-03-15T21:52:03.845Z,100.00
2023-03-15T21:54:30.571Z,100.00
2023-03-15T21:56:57.104Z,100.00
2023-03-15T21:59:27.918Z,100.00
2023-03-15T22:01:57.731Z,100.00
2023-03-15T22:04:25.547Z,100.00
2023-03-15T22:06:54.949Z,100.00
2023-03-15T22:09:23.225Z,100.00
2023-03-15T22:11:49.814Z,100.00
2023-03-15T22:14:16.308Z,100.00
2023-03-15T22:16:43.024Z,100.00
2023-03-15T22:19:09.668Z,100.00
2023-03-15T22:21:36.097Z,100.00
2023-03-15T22:24:02.625Z,100.00
2023-03-15T22:26:29.161Z,100.00
2023-03-15T22:28:55.750Z,100.00
2023-03-15T22:31:22.337Z,100.00
2023-03-15T22:33:48.995Z,100.00
2023-03-15T22:36:17.152Z,100.00
2023-03-15T22:38:50.222Z,100.00
2023-03-15T22:41:18.724Z,100.00
2023-03-15T22:43:45.916Z,100.00
2023-03-15T22:46:12.876Z,100.00
2023-03-15T22:48:39.466Z,100.00
2023-03-15T22:51:08.254Z,100.00
2023-03-15T22:53:34.759Z,100.00
2023-03-15T22:56:01.749Z,100.00
2023-03-15T22:58:28.365Z,100.00
2023-03-15T23:00:55.247Z,100.00
2023-03-15T23:03:21.763Z,100.00
2023-03-15T23:05:48.270Z,100.00
2023-03-15T23:08:14.822Z,100.00
2023-03-15T23:10:42.122Z,100.00
2023-03-15T23:13:08.671Z,100.00
2023-03-15T23:15:35.251Z,100.00
2023-03-15T23:18:01.842Z,100.00
2023-03-15T23:20:28.924Z,100.00
2023-03-15T23:22:55.709Z,100.00
2023-03-15T23:25:23.020Z,100.00
2023-03-15T23:27:50.419Z,100.00
2023-03-15T23:30:17.177Z,100.00
2023-03-15T23:32:43.876Z,100.00
2023-03-15T23:35:12.295Z,100.00
2023-03-15T23:37:39.640Z,100.00
2023-03-15T23:40:11.462Z,100.00
2023-03-15T23:42:38.002Z,100.00
2023-03-15T23:45:09.047Z,100.00
2023-03-15T23:47:35.787Z,100.00
2023-03-15T23:50:02.456Z,100.00
2023-03-15T23:52:29.028Z,100.00
2023-03-15T23:54:55.612Z,100.00
2023-03-15T23:57:22.379Z,100.00
2023-03-15T23:59:48.921Z,100.00
